createdAt,value
2018-06-15T00:00:27.837Z,15.93
2018-06-15T00:03:01.028Z,18.13
2018-06-15T00:05:28.534Z,15.67
2018-06-15T00:07:55.928Z,15.00
2018-06-15T00:10:23.376Z,15.73
2018-06-15T00:12:50.794Z,17.27
2018-06-15T00:15:18.192Z,16.33
2018-06-15T00:17:45.626Z,15.80
2018-06-15T00:20:13.046Z,15.53
2018-06-15T00:22:40.494Z,16.13
2018-06-15T00:25:07.984Z,15.77
2018-06-15T00:27:35.391Z,15.80
2018-06-15T00:30:02.851Z,15.27
2018-06-15T00:32:30.275Z,15.17
2018-06-15T00:34:57.666Z,15.80
2018-06-15T00:37:25.060Z,15.40
2018-06-15T00:39:52.469Z,16.23
2018-06-15T00:42:19.868Z,16.47
2018-06-15T00:44:47.389Z,16.10
2018-06-15T00:47:14.790Z,14.60
2018-06-15T00:49:42.178Z,15.67
2018-06-15T00:52:09.564Z,15.87
2018-06-15T00:54:36.991Z,15.50
2018-06-15T00:57:15.908Z,16.70
2018-06-15T00:59:43.292Z,15.93
2018-06-15T01:02:10.685Z,15.80
2018-06-15T01:04:38.107Z,16.57
2018-06-15T01:07:05.531Z,17.07
2018-06-15T01:09:32.941Z,16.57
2018-06-15T01:12:00.387Z,16.57
2018-06-15T01:14:27.815Z,16.87
2018-06-15T01:16:55.268Z,17.57
2018-06-15T01:19:22.662Z,15.77
2018-06-15T01:21:50.045Z,15.50
2018-06-15T01:24:17.433Z,16.40
2018-06-15T01:26:44.866Z,17.60
2018-06-15T01:29:12.258Z,16.10
2018-06-15T01:31:39.654Z,15.47
2018-06-15T01:34:07.068Z,15.40
2018-06-15T01:36:34.474Z,14.43
2018-06-15T01:39:01.918Z,14.90
2018-06-15T01:41:29.352Z,15.07
2018-06-15T01:43:56.741Z,15.23
2018-06-15T01:46:24.177Z,15.93
2018-06-15T01:48:51.599Z,16.20
2018-06-15T01:51:18.992Z,15.60
2018-06-15T01:53:46.436Z,14.13
2018-06-15T01:56:13.825Z,15.20
2018-06-15T01:58:41.235Z,15.17
2018-06-15T02:01:08.691Z,14.73
2018-06-15T02:03:36.064Z,14.80
2018-06-15T02:06:03.500Z,14.73
2018-06-15T02:08:30.925Z,14.27
2018-06-15T02:10:58.344Z,15.37
2018-06-15T02:13:25.787Z,14.23
2018-06-15T02:15:53.143Z,16.53
2018-06-15T02:18:20.565Z,15.97
2018-06-15T02:20:47.950Z,15.27
2018-06-15T02:23:15.360Z,16.13
2018-06-15T02:25:42.768Z,15.43
2018-06-15T02:28:10.182Z,15.77
2018-06-15T02:30:37.588Z,15.73
2018-06-15T02:33:04.996Z,16.60
2018-06-15T02:35:32.387Z,15.80
2018-06-15T02:37:59.806Z,17.00
2018-06-15T02:40:27.242Z,15.90
2018-06-15T02:42:54.626Z,17.13
2018-06-15T02:45:22.073Z,15.77
2018-06-15T02:47:49.446Z,17.63
2018-06-15T02:50:16.837Z,15.63
2018-06-15T02:52:44.229Z,17.00
2018-06-15T02:55:11.742Z,16.13
2018-06-15T02:57:39.163Z,15.97
2018-06-15T03:00:06.582Z,14.70
2018-06-15T03:02:34.002Z,13.63
2018-06-15T03:05:01.396Z,14.10
2018-06-15T03:07:28.828Z,13.80
2018-06-15T03:09:56.291Z,14.50
2018-06-15T03:12:23.722Z,14.17
2018-06-15T03:14:51.159Z,14.27
2018-06-15T03:17:18.653Z,14.60
2018-06-15T03:19:46.062Z,16.07
2018-06-15T03:22:13.455Z,17.63
2018-06-15T03:24:40.880Z,17.23
2018-06-15T03:27:08.297Z,17.20
2018-06-15T03:29:35.678Z,16.37
2018-06-15T03:32:03.109Z,15.23
2018-06-15T03:34:30.499Z,15.67
2018-06-15T03:36:57.940Z,14.90
2018-06-15T03:39:25.344Z,14.63
2018-06-15T03:41:52.732Z,13.93
2018-06-15T03:44:20.159Z,14.97
2018-06-15T03:46:47.575Z,14.73
2018-06-15T03:49:15.060Z,16.23
2018-06-15T03:51:42.477Z,15.30
2018-06-15T03:54:09.871Z,14.77
2018-06-15T03:56:37.301Z,14.03
2018-06-15T03:59:04.948Z,13.73
2018-06-15T04:01:32.359Z,14.23
2018-06-15T04:03:59.742Z,14.10
2018-06-15T04:06:27.126Z,14.67
2018-06-15T04:08:54.541Z,15.13
2018-06-15T04:11:21.951Z,14.20
2018-06-15T04:13:49.318Z,14.27
2018-06-15T04:16:16.755Z,15.93
2018-06-15T04:18:44.145Z,14.63
2018-06-15T04:21:11.591Z,15.10
2018-06-15T04:23:38.995Z,15.80
2018-06-15T04:26:06.393Z,14.60
2018-06-15T04:28:33.808Z,15.30
2018-06-15T04:31:01.536Z,15.37
2018-06-15T04:33:28.927Z,16.27
2018-06-15T04:35:56.341Z,15.27
2018-06-15T04:38:23.764Z,16.40
2018-06-15T04:40:51.137Z,16.70
2018-06-15T04:43:18.551Z,15.37
2018-06-15T04:45:46.178Z,16.83
2018-06-15T04:48:13.608Z,17.60
2018-06-15T04:50:41.026Z,17.70
2018-06-15T04:53:08.432Z,17.70
2018-06-15T04:55:35.848Z,17.00
2018-06-15T04:58:03.255Z,16.30
2018-06-15T05:00:30.658Z,17.63
2018-06-15T05:02:58.040Z,16.90
2018-06-15T05:05:25.453Z,17.27
2018-06-15T05:07:52.864Z,16.97
2018-06-15T05:10:20.283Z,16.53
2018-06-15T05:12:47.716Z,17.20
2018-06-15T05:15:15.100Z,18.07
2018-06-15T05:17:42.491Z,19.23
2018-06-15T05:20:09.907Z,18.57
2018-06-15T05:22:37.314Z,19.00
2018-06-15T05:25:04.711Z,20.23
2018-06-15T05:27:32.110Z,22.70
2018-06-15T05:29:59.501Z,20.63
2018-06-15T05:32:26.897Z,22.00
2018-06-15T05:34:54.288Z,20.47
2018-06-15T05:37:21.687Z,21.73
2018-06-15T05:39:49.101Z,22.07
2018-06-15T05:42:16.508Z,21.37
2018-06-15T05:44:43.910Z,23.43
2018-06-15T05:47:11.294Z,20.87
2018-06-15T05:49:38.700Z,21.30
2018-06-15T05:52:06.128Z,20.80
2018-06-15T05:54:33.514Z,22.37
2018-06-15T05:57:00.926Z,23.63
2018-06-15T05:59:28.342Z,22.27
2018-06-15T06:01:55.727Z,23.07
2018-06-15T06:04:23.143Z,23.50
2018-06-15T06:06:50.568Z,22.70
2018-06-15T06:09:17.963Z,21.63
2018-06-15T06:11:45.385Z,22.70
2018-06-15T06:14:12.801Z,21.57
2018-06-15T06:16:40.193Z,22.10
2018-06-15T06:19:07.611Z,20.20
2018-06-15T06:21:35.235Z,21.93
2018-06-15T06:24:02.650Z,21.37
2018-06-15T06:26:30.042Z,20.83
2018-06-15T06:28:57.616Z,21.90
2018-06-15T06:31:25.017Z,21.27
2018-06-15T06:33:52.419Z,21.20
2018-06-15T06:36:19.810Z,19.93
2018-06-15T06:38:47.188Z,20.93
2018-06-15T06:41:14.582Z,20.40
2018-06-15T06:43:41.979Z,20.47
2018-06-15T06:46:09.415Z,20.00
2018-06-15T06:48:36.820Z,19.90
2018-06-15T06:51:04.242Z,19.53
2018-06-15T06:53:31.648Z,20.27
2018-06-15T06:55:59.031Z,19.97
2018-06-15T06:58:26.422Z,20.30
2018-06-15T07:00:53.811Z,20.73
2018-06-15T07:03:21.197Z,21.17
2018-06-15T07:05:48.604Z,19.47
2018-06-15T07:08:15.990Z,21.33
2018-06-15T07:10:43.399Z,20.03
2018-06-15T07:13:10.846Z,21.03
2018-06-15T07:15:38.215Z,20.93
2018-06-15T07:18:05.632Z,21.10
2018-06-15T07:20:33.034Z,21.20
2018-06-15T07:23:00.439Z,21.17
2018-06-15T07:25:27.839Z,20.90
2018-06-15T07:27:55.280Z,18.87
2018-06-15T07:30:22.665Z,20.23
2018-06-15T07:32:50.064Z,20.67
2018-06-15T07:35:17.500Z,21.23
2018-06-15T07:37:44.923Z,21.57
2018-06-15T07:40:12.309Z,18.77
2018-06-15T07:42:39.732Z,18.60
2018-06-15T07:45:07.128Z,19.00
2018-06-15T07:47:34.511Z,17.93
2018-06-15T07:50:02.151Z,18.03
2018-06-15T07:52:29.547Z,18.40
2018-06-15T07:54:56.955Z,18.30
2018-06-15T07:57:24.365Z,17.47
2018-06-15T07:59:51.755Z,18.67
2018-06-15T08:02:19.144Z,18.77
2018-06-15T08:04:46.568Z,18.17
2018-06-15T08:07:14.034Z,17.20
2018-06-15T08:09:41.426Z,18.23
2018-06-15T08:12:08.828Z,18.80
2018-06-15T08:14:36.257Z,18.60
2018-06-15T08:17:03.766Z,16.87
2018-06-15T08:19:31.155Z,18.37
2018-06-15T08:21:58.553Z,16.93
2018-06-15T08:24:25.951Z,16.90
2018-06-15T08:26:53.345Z,15.13
2018-06-15T08:29:20.764Z,13.47
2018-06-15T08:31:48.176Z,14.20
2018-06-15T08:34:15.560Z,14.80
2018-06-15T08:36:42.988Z,13.57
2018-06-15T08:39:11.583Z,14.43
2018-06-15T08:41:38.986Z,16.07
2018-06-15T08:44:06.394Z,16.83
2018-06-15T08:46:33.803Z,16.90
2018-06-15T08:49:01.192Z,15.47
2018-06-15T08:51:28.620Z,14.87
2018-06-15T08:53:56.017Z,14.37
2018-06-15T08:56:23.430Z,13.87
2018-06-15T08:58:50.832Z,14.00
2018-06-15T09:01:18.238Z,12.50
2018-06-15T09:03:45.635Z,13.03
2018-06-15T09:06:13.065Z,11.70
2018-06-15T09:08:40.556Z,10.23
2018-06-15T09:11:07.985Z,9.33
2018-06-15T09:13:35.681Z,8.37
2018-06-15T09:16:03.268Z,7.70
2018-06-15T09:18:30.673Z,9.13
2018-06-15T09:20:58.136Z,6.90
2018-06-15T09:23:25.709Z,7.63
2018-06-15T09:25:53.683Z,7.40
2018-06-15T09:28:21.244Z,8.27
2018-06-15T09:30:48.793Z,8.17
2018-06-15T09:33:16.185Z,12.97
2018-06-15T09:35:43.600Z,13.27
2018-06-15T09:38:11.014Z,10.83
2018-06-15T09:40:38.404Z,8.40
2018-06-15T09:43:05.888Z,10.83
2018-06-15T09:45:33.329Z,9.40
2018-06-15T09:48:00.769Z,11.00
2018-06-15T09:50:28.172Z,12.60
2018-06-15T09:52:55.745Z,11.90
2018-06-15T09:55:23.107Z,9.73
2018-06-15T09:57:50.920Z,10.33
2018-06-15T10:00:24.121Z,9.23
2018-06-15T10:02:51.544Z,9.10
2018-06-15T10:05:19.118Z,8.57
2018-06-15T10:07:46.531Z,10.43
2018-06-15T10:10:13.948Z,11.80
2018-06-15T10:12:41.360Z,11.03
2018-06-15T10:15:08.748Z,10.50
2018-06-15T10:17:36.151Z,8.87
2018-06-15T10:20:03.859Z,9.63
2018-06-15T10:22:31.250Z,9.60
2018-06-15T10:24:58.673Z,8.70
2018-06-15T10:27:26.060Z,9.27
2018-06-15T10:29:53.459Z,9.50
2018-06-15T10:32:20.860Z,9.10
2018-06-15T10:34:48.269Z,7.40
2018-06-15T10:37:15.661Z,8.67
2018-06-15T10:39:43.090Z,8.87
2018-06-15T10:42:10.486Z,8.30
2018-06-15T10:44:37.890Z,8.13
2018-06-15T10:47:05.300Z,9.73
2018-06-15T10:49:32.714Z,8.87
2018-06-15T10:52:00.109Z,8.70
2018-06-15T10:54:27.531Z,8.63
2018-06-15T10:56:54.929Z,8.40
2018-06-15T10:59:22.392Z,7.93
2018-06-15T11:01:49.811Z,9.23
2018-06-15T11:04:17.224Z,10.00
2018-06-15T11:06:44.626Z,8.73
2018-06-15T11:09:12.019Z,8.53
2018-06-15T11:11:39.642Z,8.58
2018-06-15T11:14:07.061Z,9.30
2018-06-15T11:16:34.462Z,8.73
2018-06-15T11:19:01.905Z,8.20
2018-06-15T11:21:29.291Z,8.60
2018-06-15T11:23:56.707Z,8.90
2018-06-15T11:26:24.129Z,9.50
2018-06-15T11:28:51.532Z,8.97
2018-06-15T11:31:18.967Z,9.80
2018-06-15T11:33:46.363Z,8.73
2018-06-15T11:36:13.757Z,9.27
2018-06-15T11:38:41.180Z,9.50
2018-06-15T11:41:08.659Z,8.23
2018-06-15T11:43:36.020Z,8.85
2018-06-15T11:46:03.421Z,10.33
2018-06-15T11:48:30.854Z,11.23
2018-06-15T11:50:58.284Z,10.32
2018-06-15T11:53:25.703Z,10.13
2018-06-15T11:55:53.113Z,9.43
2018-06-15T11:58:20.565Z,9.50
2018-06-15T12:00:47.978Z,10.03
2018-06-15T12:03:15.387Z,9.60
2018-06-15T12:05:42.794Z,7.50
2018-06-15T12:08:10.259Z,7.87
2018-06-15T12:10:37.692Z,7.33
2018-06-15T12:13:05.104Z,7.22
2018-06-15T12:15:32.511Z,7.30
2018-06-15T12:17:59.935Z,9.23
2018-06-15T12:20:27.353Z,7.78
2018-06-15T12:22:54.952Z,8.98
2018-06-15T12:25:22.354Z,9.58
2018-06-15T12:27:49.827Z,9.65
2018-06-15T12:30:17.272Z,9.05
2018-06-15T12:32:44.744Z,8.30
2018-06-15T12:35:12.158Z,7.50
2018-06-15T12:37:39.567Z,7.20
2018-06-15T12:40:06.976Z,7.12
2018-06-15T12:42:34.413Z,6.50
2018-06-15T12:45:01.809Z,6.50
2018-06-15T12:47:29.236Z,7.92
2018-06-15T12:49:56.724Z,7.25
2018-06-15T12:52:24.111Z,7.35
2018-06-15T12:54:51.634Z,6.65
2018-06-15T12:57:19.062Z,8.03
2018-06-15T12:59:46.451Z,7.85
2018-06-15T13:02:13.884Z,8.05
2018-06-15T13:04:41.394Z,7.70
2018-06-15T13:07:08.837Z,6.97
2018-06-15T13:09:36.249Z,7.33
2018-06-15T13:12:03.657Z,7.50
2018-06-15T13:14:31.088Z,6.67
2018-06-15T13:16:58.494Z,7.28
2018-06-15T13:19:25.930Z,7.62
2018-06-15T13:21:53.347Z,5.90
2018-06-15T13:24:20.765Z,7.05
2018-06-15T13:26:48.213Z,5.25
2018-06-15T13:29:15.636Z,6.25
2018-06-15T13:31:43.098Z,6.12
2018-06-15T13:34:10.503Z,6.65
2018-06-15T13:36:37.918Z,4.95
2018-06-15T13:39:08.289Z,3.50
2018-06-15T13:41:35.718Z,3.52
2018-06-15T13:44:03.156Z,3.60
2018-06-15T13:46:30.579Z,3.35
2018-06-15T13:48:57.991Z,3.80
2018-06-15T13:51:25.431Z,3.62
2018-06-15T13:53:52.851Z,3.55
2018-06-15T13:56:20.265Z,3.12
2018-06-15T13:58:47.659Z,4.05
2018-06-15T14:01:15.088Z,3.58
2018-06-15T14:03:42.500Z,3.80
2018-06-15T14:06:09.900Z,3.50
2018-06-15T14:08:37.332Z,2.90
2018-06-15T14:11:04.908Z,3.62
2018-06-15T14:13:32.326Z,3.00
2018-06-15T14:15:59.762Z,2.98
2018-06-15T14:18:27.202Z,3.10
2018-06-15T14:20:54.599Z,3.35
2018-06-15T14:23:21.995Z,3.42
2018-06-15T14:25:49.427Z,2.95
2018-06-15T14:28:16.844Z,2.87
2018-06-15T14:30:44.259Z,3.35
2018-06-15T14:33:11.675Z,2.98
2018-06-15T14:35:39.131Z,2.67
2018-06-15T14:38:06.562Z,2.90
2018-06-15T14:40:33.980Z,3.27
2018-06-15T14:43:01.368Z,3.10
2018-06-15T14:45:28.821Z,3.00
2018-06-15T14:47:56.262Z,3.25
2018-06-15T14:50:23.690Z,2.87
2018-06-15T14:52:51.163Z,3.70
2018-06-15T14:55:18.607Z,2.98
2018-06-15T14:57:45.997Z,2.60
2018-06-15T15:00:13.472Z,2.80
2018-06-15T15:02:40.931Z,2.87
2018-06-15T15:05:08.343Z,2.85
2018-06-15T15:07:35.814Z,2.72
2018-06-15T15:10:03.255Z,2.72
2018-06-15T15:12:30.721Z,2.65
2018-06-15T15:14:58.211Z,2.83
2018-06-15T15:17:25.669Z,3.33
2018-06-15T15:19:53.092Z,2.75
2018-06-15T15:22:20.507Z,2.70
2018-06-15T15:24:47.904Z,2.85
2018-06-15T15:27:15.332Z,3.17
2018-06-15T15:29:42.751Z,2.87
2018-06-15T15:32:10.142Z,3.35
2018-06-15T15:34:37.594Z,3.22
2018-06-15T15:37:05.053Z,3.20
2018-06-15T15:39:32.491Z,3.47
2018-06-15T15:41:59.915Z,2.67
2018-06-15T15:44:27.561Z,3.22
2018-06-15T15:46:54.972Z,3.22
2018-06-15T15:49:22.367Z,3.02
2018-06-15T15:51:49.784Z,2.95
2018-06-15T15:54:17.199Z,2.67
2018-06-15T15:56:44.654Z,2.60
2018-06-15T15:59:12.198Z,2.85
2018-06-15T16:01:39.611Z,2.70
2018-06-15T16:04:07.018Z,2.72
2018-06-15T16:06:34.435Z,3.15
2018-06-15T16:09:01.888Z,3.37
2018-06-15T16:11:29.312Z,3.00
2018-06-15T16:13:56.731Z,2.92
2018-06-15T16:16:24.127Z,2.87
2018-06-15T16:18:51.529Z,2.60
2018-06-15T16:21:18.965Z,2.72
2018-06-15T16:23:46.354Z,2.98
2018-06-15T16:26:13.792Z,2.65
2018-06-15T16:28:41.213Z,2.60
2018-06-15T16:31:08.665Z,2.52
2018-06-15T16:33:36.061Z,2.70
2018-06-15T16:36:03.461Z,2.80
2018-06-15T16:38:30.856Z,3.55
2018-06-15T16:40:58.279Z,3.05
2018-06-15T16:43:25.845Z,2.52
2018-06-15T16:45:53.254Z,2.80
2018-06-15T16:48:20.652Z,3.10
2018-06-15T16:50:48.078Z,3.00
2018-06-15T16:53:15.957Z,2.83
2018-06-15T16:55:43.335Z,2.80
2018-06-15T16:58:10.748Z,2.60
2018-06-15T17:00:38.136Z,2.95
2018-06-15T17:03:05.620Z,3.12
2018-06-15T17:05:33.084Z,3.10
2018-06-15T17:08:00.489Z,2.80
2018-06-15T17:10:27.900Z,2.58
2018-06-15T17:12:55.311Z,2.95
2018-06-15T17:15:22.708Z,3.00
2018-06-15T17:17:50.104Z,3.25
2018-06-15T17:20:17.566Z,3.20
2018-06-15T17:22:44.993Z,2.90
2018-06-15T17:25:12.415Z,2.98
2018-06-15T17:27:39.813Z,4.00
2018-06-15T17:30:07.256Z,3.62
2018-06-15T17:32:34.672Z,2.92
2018-06-15T17:35:02.083Z,3.95
2018-06-15T17:37:29.505Z,3.37
2018-06-15T17:39:56.905Z,3.47
2018-06-15T17:42:24.319Z,2.95
2018-06-15T17:44:51.725Z,3.55
2018-06-15T17:47:19.147Z,3.95
2018-06-15T17:49:46.592Z,3.37
2018-06-15T17:52:14.004Z,3.37
2018-06-15T17:54:41.410Z,3.30
2018-06-15T17:57:08.818Z,3.50
2018-06-15T17:59:36.214Z,3.27
2018-06-15T18:02:03.610Z,3.70
2018-06-15T18:04:31.019Z,3.40
2018-06-15T18:06:58.411Z,3.33
2018-06-15T18:09:25.853Z,2.93
2018-06-15T18:11:53.391Z,3.30
2018-06-15T18:14:20.799Z,3.53
2018-06-15T18:16:48.488Z,3.57
2018-06-15T18:19:15.964Z,3.83
2018-06-15T18:21:43.692Z,3.47
2018-06-15T18:24:11.174Z,4.13
2018-06-15T18:26:38.611Z,4.58
2018-06-15T18:29:06.118Z,5.37
2018-06-15T18:31:33.646Z,5.30
2018-06-15T18:34:01.119Z,4.77
2018-06-15T18:36:28.567Z,4.40
2018-06-15T18:38:55.960Z,5.03
2018-06-15T18:41:24.146Z,5.17
2018-06-15T18:43:51.497Z,5.13
2018-06-15T18:46:18.968Z,5.60
2018-06-15T18:48:46.432Z,4.97
2018-06-15T18:51:13.823Z,5.37
2018-06-15T18:53:41.203Z,5.00
2018-06-15T18:56:08.627Z,5.27
2018-06-15T18:58:36.023Z,5.50
2018-06-15T19:01:03.472Z,5.27
2018-06-15T19:03:30.858Z,5.70
2018-06-15T19:05:58.258Z,5.63
2018-06-15T19:08:25.736Z,5.50
2018-06-15T19:10:53.242Z,6.03
2018-06-15T19:13:20.681Z,5.23
2018-06-15T19:15:48.092Z,6.83
2018-06-15T19:18:15.485Z,5.93
2018-06-15T19:20:42.884Z,6.20
2018-06-15T19:23:10.317Z,5.80
2018-06-15T19:25:37.739Z,6.07
2018-06-15T19:28:05.164Z,5.80
2018-06-15T19:30:32.559Z,11.10
2018-06-15T19:32:59.949Z,6.30
2018-06-15T19:35:27.427Z,4.83
2018-06-15T19:37:54.806Z,4.20
2018-06-15T19:40:22.219Z,4.40
2018-06-15T19:42:49.627Z,4.27
2018-06-15T19:45:17.020Z,4.27
2018-06-15T19:47:44.444Z,3.80
2018-06-15T19:50:11.858Z,3.80
2018-06-15T19:52:39.259Z,4.20
2018-06-15T19:55:07.104Z,4.30
2018-06-15T19:57:34.495Z,3.87
2018-06-15T20:00:01.918Z,4.40
2018-06-15T20:02:29.316Z,3.80
2018-06-15T20:04:56.739Z,3.67
2018-06-15T20:07:24.164Z,3.67
2018-06-15T20:09:51.558Z,4.00
2018-06-15T20:12:18.963Z,4.17
2018-06-15T20:14:46.474Z,3.73
2018-06-15T20:17:13.851Z,4.30
2018-06-15T20:19:41.236Z,4.00
2018-06-15T20:22:08.633Z,4.20
2018-06-15T20:24:36.017Z,4.20
2018-06-15T20:27:03.692Z,4.73
2018-06-15T20:29:31.088Z,4.73
2018-06-15T20:31:58.563Z,4.67
2018-06-15T20:34:25.978Z,4.90
2018-06-15T20:36:53.379Z,4.80
2018-06-15T20:39:20.783Z,4.90
2018-06-15T20:41:48.219Z,4.57
2018-06-15T20:44:15.589Z,4.90
2018-06-15T20:46:42.973Z,4.33
2018-06-15T20:49:10.374Z,4.00
2018-06-15T20:51:37.780Z,4.90
2018-06-15T20:54:05.211Z,4.77
2018-06-15T20:56:32.631Z,4.73
2018-06-15T20:59:00.151Z,4.80
2018-06-15T21:01:27.580Z,4.90
2018-06-15T21:03:55.060Z,5.47
2018-06-15T21:06:22.454Z,4.47
2018-06-15T21:08:49.842Z,4.83
2018-06-15T21:11:17.264Z,5.30
2018-06-15T21:13:44.643Z,5.40
2018-06-15T21:16:12.091Z,5.50
2018-06-15T21:18:39.473Z,5.30
2018-06-15T21:21:06.901Z,5.50
2018-06-15T21:23:34.324Z,5.03
2018-06-15T21:26:01.735Z,5.20
2018-06-15T21:28:29.127Z,5.20
2018-06-15T21:30:56.504Z,5.13
2018-06-15T21:33:23.939Z,5.70
2018-06-15T21:35:51.324Z,5.77
2018-06-15T21:38:18.719Z,5.17
2018-06-15T21:40:46.121Z,6.00
2018-06-15T21:43:13.514Z,5.87
2018-06-15T21:45:41.143Z,5.67
2018-06-15T21:48:08.561Z,5.70
2018-06-15T21:50:35.941Z,5.40
2018-06-15T21:53:03.404Z,6.53
2018-06-15T21:55:30.810Z,5.90
2018-06-15T21:57:58.244Z,5.50
2018-06-15T22:00:26.283Z,5.60
2018-06-15T22:02:53.680Z,5.57
2018-06-15T22:05:21.152Z,5.27
2018-06-15T22:07:48.586Z,5.37
2018-06-15T22:10:16.152Z,5.43
2018-06-15T22:12:43.548Z,5.30
2018-06-15T22:15:10.953Z,5.67
2018-06-15T22:17:38.394Z,5.57
2018-06-15T22:20:05.973Z,5.33
2018-06-15T22:22:33.360Z,5.57
2018-06-15T22:25:00.771Z,5.47
2018-06-15T22:27:28.172Z,5.37
2018-06-15T22:29:55.599Z,5.37
2018-06-15T22:32:23.016Z,6.27
2018-06-15T22:34:50.431Z,6.70
2018-06-15T22:37:17.892Z,6.77
2018-06-15T22:39:45.300Z,6.40
2018-06-15T22:42:12.715Z,6.33
2018-06-15T22:44:40.171Z,6.70
2018-06-15T22:47:07.581Z,7.90
2018-06-15T22:49:35.009Z,7.60
2018-06-15T22:52:02.479Z,7.90
2018-06-15T22:54:29.876Z,7.43
2018-06-15T22:56:57.340Z,7.50
2018-06-15T22:59:24.708Z,7.50
2018-06-15T23:01:52.287Z,7.63
2018-06-15T23:04:19.998Z,8.23
2018-06-15T23:06:47.388Z,8.10
2018-06-15T23:09:14.769Z,7.60
2018-06-15T23:11:42.164Z,8.10
2018-06-15T23:14:09.790Z,7.80
2018-06-15T23:16:37.184Z,8.20
2018-06-15T23:19:04.621Z,8.70
2018-06-15T23:21:32.000Z,7.73
2018-06-15T23:24:00.625Z,7.83
2018-06-15T23:26:28.012Z,7.90
2018-06-15T23:28:55.451Z,8.00
2018-06-15T23:31:22.833Z,8.47
2018-06-15T23:33:50.216Z,8.17
2018-06-15T23:36:17.612Z,8.97
2018-06-15T23:38:45.182Z,9.07
2018-06-15T23:41:12.602Z,10.07
2018-06-15T23:43:39.988Z,8.70
2018-06-15T23:46:08.403Z,9.10
2018-06-15T23:48:35.787Z,9.63
2018-06-15T23:51:03.683Z,8.97
2018-06-15T23:53:31.075Z,8.67
2018-06-15T23:55:58.459Z,8.27
2018-06-15T23:58:25.836Z,9.77
